sensor_id;sensor_type;location;lat;lon;timestamp;P1;durP1;ratioP1;P2;durP2;ratioP2
11125;SDS011;5617;54.046;10.676;2022-11-21T00:00:52;5.13;;;4.63;;
11125;SDS011;5617;54.046;10.676;2022-11-21T00:03:01;5.63;;;4.78;;
11125;SDS011;5617;54.046;10.676;2022-11-21T00:05:09;5.57;;;4.68;;
11125;SDS011;5617;54.046;10.676;2022-11-21T00:07:20;5.83;;;4.90;;
11125;SDS011;5617;54.046;10.676;2022-11-21T00:09:28;5.50;;;4.57;;
11125;SDS011;5617;54.046;10.676;2022-11-21T00:11:40;5.43;;;4.30;;
11125;SDS011;5617;54.046;10.676;2022-11-21T00:13:50;4.70;;;4.18;;
11125;SDS011;5617;54.046;10.676;2022-11-21T00:16:03;5.03;;;4.40;;
11125;SDS011;5617;54.046;10.676;2022-11-21T00:18:13;5.87;;;4.40;;
11125;SDS011;5617;54.046;10.676;2022-11-21T00:20:22;4.90;;;4.40;;
11125;SDS011;5617;54.046;10.676;2022-11-21T00:22:31;4.35;;;3.95;;
11125;SDS011;5617;54.046;10.676;2022-11-21T00:24:39;4.28;;;3.88;;
11125;SDS011;5617;54.046;10.676;2022-11-21T00:26:47;4.70;;;4.20;;
11125;SDS011;5617;54.046;10.676;2022-11-21T00:28:55;4.57;;;4.00;;
11125;SDS011;5617;54.046;10.676;2022-11-21T00:31:03;4.23;;;3.73;;
11125;SDS011;5617;54.046;10.676;2022-11-21T00:33:11;4.57;;;3.90;;
11125;SDS011;5617;54.046;10.676;2022-11-21T00:35:19;4.23;;;3.63;;
11125;SDS011;5617;54.046;10.676;2022-11-21T00:37:28;5.17;;;3.90;;
11125;SDS011;5617;54.046;10.676;2022-11-21T00:39:37;3.97;;;3.58;;
11125;SDS011;5617;54.046;10.676;2022-11-21T00:41:44;5.23;;;4.00;;
11125;SDS011;5617;54.046;10.676;2022-11-21T00:43:52;4.47;;;3.67;;
11125;SDS011;5617;54.046;10.676;2022-11-21T00:46:00;4.78;;;3.72;;
11125;SDS011;5617;54.046;10.676;2022-11-21T00:48:08;4.25;;;3.50;;
11125;SDS011;5617;54.046;10.676;2022-11-21T00:50:16;5.50;;;3.90;;
11125;SDS011;5617;54.046;10.676;2022-11-21T00:52:24;4.20;;;3.80;;
11125;SDS011;5617;54.046;10.676;2022-11-21T00:54:31;4.67;;;3.80;;
11125;SDS011;5617;54.046;10.676;2022-11-21T00:56:40;4.00;;;3.60;;
11125;SDS011;5617;54.046;10.676;2022-11-21T00:58:48;4.55;;;3.90;;
11125;SDS011;5617;54.046;10.676;2022-11-21T01:01:03;4.35;;;3.65;;
11125;SDS011;5617;54.046;10.676;2022-11-21T01:03:12;4.20;;;3.38;;
11125;SDS011;5617;54.046;10.676;2022-11-21T01:05:19;5.77;;;4.13;;
11125;SDS011;5617;54.046;10.676;2022-11-21T01:07:27;3.65;;;3.35;;
11125;SDS011;5617;54.046;10.676;2022-11-21T01:09:35;4.03;;;3.63;;
11125;SDS011;5617;54.046;10.676;2022-11-21T01:11:44;4.57;;;3.83;;
11125;SDS011;5617;54.046;10.676;2022-11-21T01:13:52;4.78;;;3.90;;
11125;SDS011;5617;54.046;10.676;2022-11-21T01:16:03;4.13;;;3.63;;
11125;SDS011;5617;54.046;10.676;2022-11-21T01:18:11;4.85;;;3.80;;
11125;SDS011;5617;54.046;10.676;2022-11-21T01:20:19;4.50;;;3.70;;
11125;SDS011;5617;54.046;10.676;2022-11-21T01:22:27;4.85;;;4.25;;
11125;SDS011;5617;54.046;10.676;2022-11-21T01:24:34;4.00;;;3.60;;
11125;SDS011;5617;54.046;10.676;2022-11-21T01:26:43;5.95;;;4.63;;
11125;SDS011;5617;54.046;10.676;2022-11-21T01:28:51;10.15;;;5.45;;
11125;SDS011;5617;54.046;10.676;2022-11-21T01:31:03;6.75;;;4.95;;
11125;SDS011;5617;54.046;10.676;2022-11-21T01:33:12;20.13;;;9.73;;
11125;SDS011;5617;54.046;10.676;2022-11-21T01:35:19;10.45;;;6.40;;
11125;SDS011;5617;54.046;10.676;2022-11-21T01:37:27;16.45;;;9.00;;
11125;SDS011;5617;54.046;10.676;2022-11-21T01:39:35;9.65;;;5.95;;
11125;SDS011;5617;54.046;10.676;2022-11-21T01:41:44;6.30;;;4.30;;
11125;SDS011;5617;54.046;10.676;2022-11-21T01:43:52;5.18;;;3.90;;
11125;SDS011;5617;54.046;10.676;2022-11-21T01:46:02;4.97;;;4.05;;
11125;SDS011;5617;54.046;10.676;2022-11-21T01:48:12;5.22;;;3.67;;
11125;SDS011;5617;54.046;10.676;2022-11-21T01:50:20;7.82;;;5.05;;
11125;SDS011;5617;54.046;10.676;2022-11-21T01:52:28;7.90;;;5.30;;
11125;SDS011;5617;54.046;10.676;2022-11-21T01:54:39;6.75;;;5.35;;
11125;SDS011;5617;54.046;10.676;2022-11-21T01:56:52;5.95;;;4.63;;
11125;SDS011;5617;54.046;10.676;2022-11-21T01:59:07;6.43;;;5.00;;
11125;SDS011;5617;54.046;10.676;2022-11-21T02:01:17;5.40;;;4.45;;
11125;SDS011;5617;54.046;10.676;2022-11-21T02:03:26;7.07;;;4.80;;
11125;SDS011;5617;54.046;10.676;2022-11-21T02:05:37;6.55;;;4.53;;
11125;SDS011;5617;54.046;10.676;2022-11-21T02:07:46;5.68;;;4.68;;
11125;SDS011;5617;54.046;10.676;2022-11-21T02:09:56;6.07;;;4.90;;
11125;SDS011;5617;54.046;10.676;2022-11-21T02:12:08;7.03;;;4.72;;
11125;SDS011;5617;54.046;10.676;2022-11-21T02:14:20;4.70;;;4.25;;
11125;SDS011;5617;54.046;10.676;2022-11-21T02:16:28;6.30;;;5.25;;
11125;SDS011;5617;54.046;10.676;2022-11-21T02:18:36;6.43;;;4.85;;
11125;SDS011;5617;54.046;10.676;2022-11-21T02:20:44;5.65;;;4.82;;
11125;SDS011;5617;54.046;10.676;2022-11-21T02:23:01;5.93;;;4.80;;
11125;SDS011;5617;54.046;10.676;2022-11-21T02:25:19;6.70;;;4.80;;
11125;SDS011;5617;54.046;10.676;2022-11-21T02:27:30;5.90;;;4.95;;
11125;SDS011;5617;54.046;10.676;2022-11-21T02:29:38;6.07;;;5.13;;
11125;SDS011;5617;54.046;10.676;2022-11-21T02:31:46;6.27;;;4.87;;
11125;SDS011;5617;54.046;10.676;2022-11-21T02:33:54;6.70;;;5.40;;
11125;SDS011;5617;54.046;10.676;2022-11-21T02:36:02;6.00;;;4.90;;
11125;SDS011;5617;54.046;10.676;2022-11-21T02:38:12;6.10;;;5.17;;
11125;SDS011;5617;54.046;10.676;2022-11-21T02:40:24;5.55;;;4.88;;
11125;SDS011;5617;54.046;10.676;2022-11-21T02:42:35;5.78;;;5.00;;
11125;SDS011;5617;54.046;10.676;2022-11-21T02:44:47;6.85;;;5.43;;
11125;SDS011;5617;54.046;10.676;2022-11-21T02:46:59;5.88;;;5.07;;
11125;SDS011;5617;54.046;10.676;2022-11-21T02:49:07;6.65;;;5.50;;
11125;SDS011;5617;54.046;10.676;2022-11-21T02:51:15;6.40;;;5.20;;
11125;SDS011;5617;54.046;10.676;2022-11-21T02:53:23;6.53;;;5.33;;
11125;SDS011;5617;54.046;10.676;2022-11-21T02:55:32;7.13;;;5.53;;
11125;SDS011;5617;54.046;10.676;2022-11-21T02:57:40;7.50;;;5.82;;
11125;SDS011;5617;54.046;10.676;2022-11-21T02:59:49;6.43;;;5.70;;
11125;SDS011;5617;54.046;10.676;2022-11-21T03:01:56;7.67;;;6.00;;
11125;SDS011;5617;54.046;10.676;2022-11-21T03:04:06;6.50;;;5.80;;
11125;SDS011;5617;54.046;10.676;2022-11-21T03:06:13;9.88;;;6.38;;
11125;SDS011;5617;54.046;10.676;2022-11-21T03:08:21;8.50;;;6.10;;
11125;SDS011;5617;54.046;10.676;2022-11-21T03:10:29;6.90;;;5.75;;
11125;SDS011;5617;54.046;10.676;2022-11-21T03:12:39;8.45;;;6.18;;
11125;SDS011;5617;54.046;10.676;2022-11-21T03:14:47;6.63;;;5.73;;
11125;SDS011;5617;54.046;10.676;2022-11-21T03:16:55;8.80;;;5.80;;
11125;SDS011;5617;54.046;10.676;2022-11-21T03:19:03;6.80;;;6.03;;
11125;SDS011;5617;54.046;10.676;2022-11-21T03:21:10;7.68;;;6.07;;
11125;SDS011;5617;54.046;10.676;2022-11-21T03:23:18;8.47;;;6.70;;
11125;SDS011;5617;54.046;10.676;2022-11-21T03:25:26;7.47;;;6.30;;
11125;SDS011;5617;54.046;10.676;2022-11-21T03:27:34;8.13;;;6.20;;
11125;SDS011;5617;54.046;10.676;2022-11-21T03:29:43;6.70;;;5.65;;
11125;SDS011;5617;54.046;10.676;2022-11-21T03:31:51;8.10;;;6.35;;
11125;SDS011;5617;54.046;10.676;2022-11-21T03:33:59;8.03;;;6.30;;
11125;SDS011;5617;54.046;10.676;2022-11-21T03:36:07;7.57;;;6.27;;
11125;SDS011;5617;54.046;10.676;2022-11-21T03:38:14;7.83;;;6.37;;
11125;SDS011;5617;54.046;10.676;2022-11-21T03:40:22;7.60;;;6.15;;
11125;SDS011;5617;54.046;10.676;2022-11-21T03:42:30;7.25;;;5.97;;
11125;SDS011;5617;54.046;10.676;2022-11-21T03:44:38;7.67;;;6.10;;
11125;SDS011;5617;54.046;10.676;2022-11-21T03:46:47;10.38;;;6.50;;
11125;SDS011;5617;54.046;10.676;2022-11-21T03:48:54;7.63;;;6.20;;
11125;SDS011;5617;54.046;10.676;2022-11-21T03:51:02;8.13;;;6.73;;
11125;SDS011;5617;54.046;10.676;2022-11-21T03:53:10;7.93;;;5.83;;
11125;SDS011;5617;54.046;10.676;2022-11-21T03:55:18;8.65;;;6.38;;
11125;SDS011;5617;54.046;10.676;2022-11-21T03:57:25;9.00;;;6.10;;
11125;SDS011;5617;54.046;10.676;2022-11-21T03:59:35;8.02;;;6.20;;
11125;SDS011;5617;54.046;10.676;2022-11-21T04:01:44;7.83;;;5.90;;
11125;SDS011;5617;54.046;10.676;2022-11-21T04:03:55;7.73;;;5.67;;
11125;SDS011;5617;54.046;10.676;2022-11-21T04:06:06;7.80;;;6.10;;
11125;SDS011;5617;54.046;10.676;2022-11-21T04:08:15;6.78;;;5.97;;
11125;SDS011;5617;54.046;10.676;2022-11-21T04:10:24;8.03;;;6.27;;
11125;SDS011;5617;54.046;10.676;2022-11-21T04:12:33;8.65;;;6.28;;
11125;SDS011;5617;54.046;10.676;2022-11-21T04:14:43;7.65;;;6.28;;
11125;SDS011;5617;54.046;10.676;2022-11-21T04:16:52;7.60;;;6.40;;
11125;SDS011;5617;54.046;10.676;2022-11-21T04:19:03;7.23;;;6.03;;
11125;SDS011;5617;54.046;10.676;2022-11-21T04:21:11;7.82;;;6.35;;
11125;SDS011;5617;54.046;10.676;2022-11-21T04:23:20;8.15;;;6.20;;
11125;SDS011;5617;54.046;10.676;2022-11-21T04:25:29;8.20;;;6.63;;
11125;SDS011;5617;54.046;10.676;2022-11-21T04:27:37;8.03;;;6.43;;
11125;SDS011;5617;54.046;10.676;2022-11-21T04:29:46;6.63;;;5.80;;
11125;SDS011;5617;54.046;10.676;2022-11-21T04:31:56;6.67;;;5.67;;
11125;SDS011;5617;54.046;10.676;2022-11-21T04:34:05;7.47;;;5.93;;
11125;SDS011;5617;54.046;10.676;2022-11-21T04:36:14;6.70;;;5.90;;
11125;SDS011;5617;54.046;10.676;2022-11-21T04:38:23;7.25;;;6.20;;
11125;SDS011;5617;54.046;10.676;2022-11-21T04:40:32;7.83;;;6.43;;
11125;SDS011;5617;54.046;10.676;2022-11-21T04:42:43;8.68;;;6.10;;
11125;SDS011;5617;54.046;10.676;2022-11-21T04:44:52;7.40;;;6.07;;
11125;SDS011;5617;54.046;10.676;2022-11-21T04:47:00;7.40;;;6.03;;
11125;SDS011;5617;54.046;10.676;2022-11-21T04:49:09;7.83;;;6.63;;
11125;SDS011;5617;54.046;10.676;2022-11-21T04:51:18;6.70;;;5.90;;
11125;SDS011;5617;54.046;10.676;2022-11-21T04:53:26;8.23;;;5.93;;
11125;SDS011;5617;54.046;10.676;2022-11-21T04:55:35;7.43;;;6.17;;
11125;SDS011;5617;54.046;10.676;2022-11-21T04:57:43;7.53;;;5.80;;
11125;SDS011;5617;54.046;10.676;2022-11-21T04:59:51;6.10;;;5.15;;
11125;SDS011;5617;54.046;10.676;2022-11-21T05:01:58;6.40;;;5.27;;
11125;SDS011;5617;54.046;10.676;2022-11-21T05:04:06;5.80;;;5.20;;
11125;SDS011;5617;54.046;10.676;2022-11-21T05:06:15;6.77;;;5.50;;
11125;SDS011;5617;54.046;10.676;2022-11-21T05:08:23;6.03;;;5.43;;
11125;SDS011;5617;54.046;10.676;2022-11-21T05:10:30;6.50;;;5.20;;
11125;SDS011;5617;54.046;10.676;2022-11-21T05:12:59;6.37;;;5.20;;
11125;SDS011;5617;54.046;10.676;2022-11-21T05:15:24;5.87;;;4.87;;
11125;SDS011;5617;54.046;10.676;2022-11-21T05:17:32;7.03;;;5.13;;
11125;SDS011;5617;54.046;10.676;2022-11-21T05:19:40;6.25;;;5.10;;
11125;SDS011;5617;54.046;10.676;2022-11-21T05:21:49;7.43;;;5.27;;
11125;SDS011;5617;54.046;10.676;2022-11-21T05:23:56;6.13;;;5.20;;
11125;SDS011;5617;54.046;10.676;2022-11-21T05:26:05;5.50;;;4.50;;
11125;SDS011;5617;54.046;10.676;2022-11-21T05:28:13;5.90;;;4.63;;
11125;SDS011;5617;54.046;10.676;2022-11-21T05:30:21;4.93;;;4.30;;
11125;SDS011;5617;54.046;10.676;2022-11-21T05:32:28;13.90;;;8.53;;
11125;SDS011;5617;54.046;10.676;2022-11-21T05:34:36;41.17;;;19.10;;
11125;SDS011;5617;54.046;10.676;2022-11-21T05:36:44;44.10;;;19.83;;
11125;SDS011;5617;54.046;10.676;2022-11-21T05:38:53;25.60;;;12.63;;
11125;SDS011;5617;54.046;10.676;2022-11-21T05:41:00;9.30;;;6.57;;
11125;SDS011;5617;54.046;10.676;2022-11-21T05:43:09;8.47;;;6.40;;
11125;SDS011;5617;54.046;10.676;2022-11-21T05:45:34;8.47;;;5.40;;
11125;SDS011;5617;54.046;10.676;2022-11-21T05:47:42;6.77;;;5.10;;
11125;SDS011;5617;54.046;10.676;2022-11-21T05:49:50;7.37;;;5.27;;
11125;SDS011;5617;54.046;10.676;2022-11-21T05:51:58;6.70;;;5.13;;
11125;SDS011;5617;54.046;10.676;2022-11-21T05:54:07;5.10;;;4.57;;
11125;SDS011;5617;54.046;10.676;2022-11-21T05:56:18;6.03;;;5.00;;
11125;SDS011;5617;54.046;10.676;2022-11-21T05:58:27;6.17;;;5.30;;
11125;SDS011;5617;54.046;10.676;2022-11-21T06:00:35;7.63;;;5.43;;
11125;SDS011;5617;54.046;10.676;2022-11-21T06:02:43;6.33;;;5.60;;
11125;SDS011;5617;54.046;10.676;2022-11-21T06:05:08;6.57;;;5.77;;
11125;SDS011;5617;54.046;10.676;2022-11-21T06:07:15;6.53;;;5.50;;
11125;SDS011;5617;54.046;10.676;2022-11-21T06:09:24;5.10;;;3.70;;
11125;SDS011;5617;54.046;10.676;2022-11-21T06:11:32;7.80;;;5.80;;
11125;SDS011;5617;54.046;10.676;2022-11-21T06:13:40;7.37;;;5.23;;
11125;SDS011;5617;54.046;10.676;2022-11-21T06:15:49;7.87;;;5.87;;
11125;SDS011;5617;54.046;10.676;2022-11-21T06:17:58;7.63;;;5.90;;
11125;SDS011;5617;54.046;10.676;2022-11-21T06:20:08;6.17;;;4.90;;
11125;SDS011;5617;54.046;10.676;2022-11-21T06:22:17;7.73;;;6.20;;
11125;SDS011;5617;54.046;10.676;2022-11-21T06:24:26;7.87;;;5.67;;
11125;SDS011;5617;54.046;10.676;2022-11-21T06:26:34;6.93;;;5.47;;
11125;SDS011;5617;54.046;10.676;2022-11-21T06:28:42;6.20;;;5.23;;
11125;SDS011;5617;54.046;10.676;2022-11-21T06:30:51;8.27;;;5.60;;
11125;SDS011;5617;54.046;10.676;2022-11-21T06:33:01;8.07;;;5.93;;
11125;SDS011;5617;54.046;10.676;2022-11-21T06:35:10;8.00;;;5.40;;
11125;SDS011;5617;54.046;10.676;2022-11-21T06:37:17;6.50;;;5.30;;
11125;SDS011;5617;54.046;10.676;2022-11-21T06:39:26;6.80;;;5.77;;
11125;SDS011;5617;54.046;10.676;2022-11-21T06:41:34;7.27;;;5.40;;
11125;SDS011;5617;54.046;10.676;2022-11-21T06:43:43;9.17;;;5.60;;
11125;SDS011;5617;54.046;10.676;2022-11-21T06:45:51;8.53;;;5.50;;
11125;SDS011;5617;54.046;10.676;2022-11-21T06:48:01;5.77;;;5.17;;
11125;SDS011;5617;54.046;10.676;2022-11-21T06:50:10;6.00;;;5.27;;
11125;SDS011;5617;54.046;10.676;2022-11-21T06:52:17;6.65;;;5.00;;
11125;SDS011;5617;54.046;10.676;2022-11-21T06:54:26;8.10;;;5.30;;
11125;SDS011;5617;54.046;10.676;2022-11-21T06:56:34;7.33;;;5.53;;
11125;SDS011;5617;54.046;10.676;2022-11-21T06:58:42;5.97;;;5.18;;
11125;SDS011;5617;54.046;10.676;2022-11-21T07:00:50;6.47;;;4.97;;
11125;SDS011;5617;54.046;10.676;2022-11-21T07:02:58;6.57;;;5.13;;
11125;SDS011;5617;54.046;10.676;2022-11-21T07:05:08;7.10;;;4.80;;
11125;SDS011;5617;54.046;10.676;2022-11-21T07:07:16;6.53;;;5.03;;
11125;SDS011;5617;54.046;10.676;2022-11-21T07:09:26;6.83;;;4.70;;
11125;SDS011;5617;54.046;10.676;2022-11-21T07:11:34;6.70;;;5.20;;
11125;SDS011;5617;54.046;10.676;2022-11-21T07:13:42;6.20;;;4.93;;
11125;SDS011;5617;54.046;10.676;2022-11-21T07:15:50;5.67;;;4.77;;
11125;SDS011;5617;54.046;10.676;2022-11-21T07:17:59;6.30;;;4.70;;
11125;SDS011;5617;54.046;10.676;2022-11-21T07:20:08;6.47;;;4.57;;
11125;SDS011;5617;54.046;10.676;2022-11-21T07:22:17;7.73;;;5.07;;
11125;SDS011;5617;54.046;10.676;2022-11-21T07:24:24;7.20;;;5.33;;
11125;SDS011;5617;54.046;10.676;2022-11-21T07:26:34;6.60;;;5.43;;
11125;SDS011;5617;54.046;10.676;2022-11-21T07:28:41;7.77;;;5.20;;
11125;SDS011;5617;54.046;10.676;2022-11-21T07:30:49;5.47;;;4.77;;
11125;SDS011;5617;54.046;10.676;2022-11-21T07:32:58;5.70;;;4.83;;
11125;SDS011;5617;54.046;10.676;2022-11-21T07:35:07;5.43;;;4.67;;
11125;SDS011;5617;54.046;10.676;2022-11-21T07:37:15;5.50;;;4.57;;
11125;SDS011;5617;54.046;10.676;2022-11-21T07:39:23;5.80;;;4.50;;
11125;SDS011;5617;54.046;10.676;2022-11-21T07:41:32;5.70;;;4.70;;
11125;SDS011;5617;54.046;10.676;2022-11-21T07:43:40;5.23;;;4.10;;
11125;SDS011;5617;54.046;10.676;2022-11-21T07:45:47;5.03;;;4.40;;
11125;SDS011;5617;54.046;10.676;2022-11-21T07:47:56;5.30;;;4.83;;
11125;SDS011;5617;54.046;10.676;2022-11-21T07:50:05;5.47;;;4.30;;
11125;SDS011;5617;54.046;10.676;2022-11-21T07:52:13;4.97;;;4.47;;
11125;SDS011;5617;54.046;10.676;2022-11-21T07:54:21;5.50;;;4.27;;
11125;SDS011;5617;54.046;10.676;2022-11-21T07:56:29;5.23;;;4.13;;
11125;SDS011;5617;54.046;10.676;2022-11-21T07:58:38;5.43;;;4.50;;
11125;SDS011;5617;54.046;10.676;2022-11-21T08:00:46;5.77;;;4.50;;
11125;SDS011;5617;54.046;10.676;2022-11-21T08:02:53;4.70;;;4.30;;
11125;SDS011;5617;54.046;10.676;2022-11-21T08:05:01;4.63;;;4.07;;
11125;SDS011;5617;54.046;10.676;2022-11-21T08:07:09;6.20;;;4.43;;
11125;SDS011;5617;54.046;10.676;2022-11-21T08:09:17;5.83;;;5.23;;
11125;SDS011;5617;54.046;10.676;2022-11-21T08:11:24;6.47;;;5.60;;
11125;SDS011;5617;54.046;10.676;2022-11-21T08:13:32;6.47;;;5.60;;
11125;SDS011;5617;54.046;10.676;2022-11-21T08:15:42;5.13;;;4.63;;
11125;SDS011;5617;54.046;10.676;2022-11-21T08:17:49;5.63;;;5.03;;
11125;SDS011;5617;54.046;10.676;2022-11-21T08:19:57;6.03;;;4.90;;
11125;SDS011;5617;54.046;10.676;2022-11-21T08:22:05;5.80;;;5.00;;
11125;SDS011;5617;54.046;10.676;2022-11-21T08:24:13;5.17;;;4.30;;
11125;SDS011;5617;54.046;10.676;2022-11-21T08:26:22;7.80;;;4.63;;
11125;SDS011;5617;54.046;10.676;2022-11-21T08:28:30;5.10;;;4.57;;
11125;SDS011;5617;54.046;10.676;2022-11-21T08:30:38;5.47;;;4.63;;
11125;SDS011;5617;54.046;10.676;2022-11-21T08:32:47;6.07;;;4.90;;
11125;SDS011;5617;54.046;10.676;2022-11-21T08:34:55;5.97;;;5.17;;
11125;SDS011;5617;54.046;10.676;2022-11-21T08:37:03;6.87;;;5.10;;
11125;SDS011;5617;54.046;10.676;2022-11-21T08:39:11;6.17;;;4.80;;
11125;SDS011;5617;54.046;10.676;2022-11-21T08:41:18;6.07;;;5.07;;
11125;SDS011;5617;54.046;10.676;2022-11-21T08:43:55;5.20;;;4.37;;
11125;SDS011;5617;54.046;10.676;2022-11-21T08:46:03;5.70;;;4.93;;
11125;SDS011;5617;54.046;10.676;2022-11-21T08:48:12;5.70;;;4.70;;
11125;SDS011;5617;54.046;10.676;2022-11-21T08:50:20;5.87;;;5.37;;
11125;SDS011;5617;54.046;10.676;2022-11-21T08:52:29;6.27;;;5.20;;
11125;SDS011;5617;54.046;10.676;2022-11-21T08:54:36;6.47;;;5.33;;
11125;SDS011;5617;54.046;10.676;2022-11-21T08:56:44;7.20;;;5.40;;
11125;SDS011;5617;54.046;10.676;2022-11-21T08:58:52;7.37;;;5.80;;
11125;SDS011;5617;54.046;10.676;2022-11-21T09:01:01;6.60;;;5.30;;
11125;SDS011;5617;54.046;10.676;2022-11-21T09:03:08;6.70;;;5.50;;
11125;SDS011;5617;54.046;10.676;2022-11-21T09:05:17;8.50;;;6.07;;
11125;SDS011;5617;54.046;10.676;2022-11-21T09:07:25;5.93;;;5.23;;
11125;SDS011;5617;54.046;10.676;2022-11-21T09:09:33;7.17;;;5.37;;
11125;SDS011;5617;54.046;10.676;2022-11-21T09:11:40;6.90;;;5.97;;
11125;SDS011;5617;54.046;10.676;2022-11-21T09:13:48;8.97;;;6.30;;
11125;SDS011;5617;54.046;10.676;2022-11-21T09:16:10;7.00;;;5.60;;
11125;SDS011;5617;54.046;10.676;2022-11-21T09:18:36;6.83;;;5.70;;
11125;SDS011;5617;54.046;10.676;2022-11-21T09:20:45;7.77;;;6.03;;
11125;SDS011;5617;54.046;10.676;2022-11-21T09:22:53;6.40;;;5.67;;
11125;SDS011;5617;54.046;10.676;2022-11-21T09:25:01;8.17;;;5.33;;
11125;SDS011;5617;54.046;10.676;2022-11-21T09:27:09;7.50;;;6.10;;
11125;SDS011;5617;54.046;10.676;2022-11-21T09:29:17;5.73;;;4.80;;
11125;SDS011;5617;54.046;10.676;2022-11-21T09:31:25;5.87;;;5.27;;
11125;SDS011;5617;54.046;10.676;2022-11-21T09:33:34;6.07;;;4.60;;
11125;SDS011;5617;54.046;10.676;2022-11-21T09:35:42;6.10;;;4.90;;
11125;SDS011;5617;54.046;10.676;2022-11-21T09:37:51;5.30;;;4.80;;
11125;SDS011;5617;54.046;10.676;2022-11-21T09:39:59;5.30;;;4.80;;
11125;SDS011;5617;54.046;10.676;2022-11-21T09:42:13;5.63;;;5.03;;
11125;SDS011;5617;54.046;10.676;2022-11-21T09:47:15;5.40;;;4.90;;
11125;SDS011;5617;54.046;10.676;2022-11-21T09:49:27;6.17;;;5.07;;
11125;SDS011;5617;54.046;10.676;2022-11-21T09:51:39;5.43;;;4.63;;
11125;SDS011;5617;54.046;10.676;2022-11-21T09:53:52;6.13;;;5.30;;
11125;SDS011;5617;54.046;10.676;2022-11-21T09:56:05;5.93;;;5.33;;
11125;SDS011;5617;54.046;10.676;2022-11-21T09:58:19;5.60;;;4.83;;
11125;SDS011;5617;54.046;10.676;2022-11-21T10:00:31;5.50;;;4.97;;
11125;SDS011;5617;54.046;10.676;2022-11-21T10:02:39;5.60;;;4.83;;
11125;SDS011;5617;54.046;10.676;2022-11-21T10:04:47;6.87;;;4.70;;
11125;SDS011;5617;54.046;10.676;2022-11-21T10:06:58;5.40;;;4.80;;
11125;SDS011;5617;54.046;10.676;2022-11-21T10:09:12;4.73;;;4.30;;
11125;SDS011;5617;54.046;10.676;2022-11-21T10:11:28;6.53;;;5.50;;
11125;SDS011;5617;54.046;10.676;2022-11-21T10:14:11;5.53;;;4.53;;
11125;SDS011;5617;54.046;10.676;2022-11-21T10:16:31;7.33;;;5.10;;
11125;SDS011;5617;54.046;10.676;2022-11-21T10:18:56;5.93;;;4.97;;
11125;SDS011;5617;54.046;10.676;2022-11-21T10:21:21;6.00;;;4.63;;
11125;SDS011;5617;54.046;10.676;2022-11-21T10:23:53;6.00;;;4.90;;
11125;SDS011;5617;54.046;10.676;2022-11-21T10:26:16;5.83;;;5.20;;
11125;SDS011;5617;54.046;10.676;2022-11-21T10:28:30;6.23;;;5.47;;
11125;SDS011;5617;54.046;10.676;2022-11-21T10:30:49;6.13;;;5.20;;
11125;SDS011;5617;54.046;10.676;2022-11-21T10:33:00;6.27;;;5.33;;
11125;SDS011;5617;54.046;10.676;2022-11-21T10:35:14;6.40;;;5.50;;
11125;SDS011;5617;54.046;10.676;2022-11-21T10:37:26;6.00;;;5.40;;
11125;SDS011;5617;54.046;10.676;2022-11-21T10:39:40;6.83;;;5.27;;
11125;SDS011;5617;54.046;10.676;2022-11-21T10:41:54;6.67;;;5.97;;
11125;SDS011;5617;54.046;10.676;2022-11-21T10:44:10;5.77;;;5.17;;
11125;SDS011;5617;54.046;10.676;2022-11-21T10:46:45;5.83;;;4.30;;
11125;SDS011;5617;54.046;10.676;2022-11-21T10:49:01;4.57;;;3.40;;
11125;SDS011;5617;54.046;10.676;2022-11-21T10:51:15;7.13;;;5.80;;
11125;SDS011;5617;54.046;10.676;2022-11-21T10:53:31;7.37;;;5.67;;
11125;SDS011;5617;54.046;10.676;2022-11-21T10:55:57;6.23;;;5.00;;
11125;SDS011;5617;54.046;10.676;2022-11-21T10:58:17;5.93;;;5.27;;
11125;SDS011;5617;54.046;10.676;2022-11-21T11:00:25;9.13;;;5.90;;
11125;SDS011;5617;54.046;10.676;2022-11-21T11:02:33;5.60;;;4.90;;
11125;SDS011;5617;54.046;10.676;2022-11-21T11:04:41;5.07;;;3.93;;
11125;SDS011;5617;54.046;10.676;2022-11-21T11:06:49;7.20;;;5.77;;
11125;SDS011;5617;54.046;10.676;2022-11-21T11:08:56;6.00;;;5.30;;
11125;SDS011;5617;54.046;10.676;2022-11-21T11:11:05;7.73;;;5.90;;
11125;SDS011;5617;54.046;10.676;2022-11-21T11:13:14;7.30;;;5.83;;
11125;SDS011;5617;54.046;10.676;2022-11-21T11:15:51;5.43;;;4.40;;
11125;SDS011;5617;54.046;10.676;2022-11-21T11:18:02;5.20;;;4.03;;
11125;SDS011;5617;54.046;10.676;2022-11-21T11:20:28;7.23;;;6.20;;
11125;SDS011;5617;54.046;10.676;2022-11-21T11:22:39;7.97;;;6.23;;
11125;SDS011;5617;54.046;10.676;2022-11-21T11:24:51;6.53;;;5.50;;
11125;SDS011;5617;54.046;10.676;2022-11-21T11:26:59;8.63;;;6.67;;
11125;SDS011;5617;54.046;10.676;2022-11-21T11:29:12;8.77;;;7.17;;
11125;SDS011;5617;54.046;10.676;2022-11-21T11:31:22;8.37;;;5.90;;
11125;SDS011;5617;54.046;10.676;2022-11-21T11:33:31;9.33;;;6.20;;
11125;SDS011;5617;54.046;10.676;2022-11-21T11:35:40;7.83;;;6.87;;
11125;SDS011;5617;54.046;10.676;2022-11-21T11:37:53;8.97;;;6.70;;
11125;SDS011;5617;54.046;10.676;2022-11-21T11:40:09;9.60;;;7.73;;
11125;SDS011;5617;54.046;10.676;2022-11-21T11:42:40;10.53;;;7.40;;
11125;SDS011;5617;54.046;10.676;2022-11-21T11:45:24;8.20;;;7.13;;
11125;SDS011;5617;54.046;10.676;2022-11-21T11:48:11;9.17;;;7.47;;
11125;SDS011;5617;54.046;10.676;2022-11-21T11:50:20;5.73;;;4.03;;
11125;SDS011;5617;54.046;10.676;2022-11-21T11:52:31;9.80;;;7.87;;
11125;SDS011;5617;54.046;10.676;2022-11-21T11:54:44;7.90;;;6.37;;
11125;SDS011;5617;54.046;10.676;2022-11-21T11:56:56;9.93;;;7.97;;
11125;SDS011;5617;54.046;10.676;2022-11-21T11:59:06;10.40;;;7.93;;
11125;SDS011;5617;54.046;10.676;2022-11-21T12:01:23;9.83;;;7.53;;
11125;SDS011;5617;54.046;10.676;2022-11-21T12:03:38;9.43;;;7.43;;
11125;SDS011;5617;54.046;10.676;2022-11-21T12:05:54;10.13;;;7.73;;
11125;SDS011;5617;54.046;10.676;2022-11-21T12:08:09;9.07;;;7.30;;
11125;SDS011;5617;54.046;10.676;2022-11-21T12:10:23;9.73;;;7.60;;
11125;SDS011;5617;54.046;10.676;2022-11-21T12:12:35;8.50;;;7.57;;
11125;SDS011;5617;54.046;10.676;2022-11-21T12:14:46;9.00;;;7.83;;
11125;SDS011;5617;54.046;10.676;2022-11-21T12:17:23;9.37;;;7.27;;
11125;SDS011;5617;54.046;10.676;2022-11-21T12:19:36;9.83;;;7.53;;
11125;SDS011;5617;54.046;10.676;2022-11-21T12:21:45;10.53;;;7.00;;
11125;SDS011;5617;54.046;10.676;2022-11-21T12:23:54;9.23;;;7.27;;
11125;SDS011;5617;54.046;10.676;2022-11-21T12:26:05;9.83;;;7.07;;
11125;SDS011;5617;54.046;10.676;2022-11-21T12:28:25;7.83;;;6.60;;
11125;SDS011;5617;54.046;10.676;2022-11-21T12:30:46;8.93;;;7.60;;
11125;SDS011;5617;54.046;10.676;2022-11-21T12:33:05;9.23;;;7.57;;
11125;SDS011;5617;54.046;10.676;2022-11-21T12:35:30;9.90;;;7.47;;
11125;SDS011;5617;54.046;10.676;2022-11-21T12:37:52;10.10;;;8.23;;
11125;SDS011;5617;54.046;10.676;2022-11-21T12:40:09;10.03;;;8.60;;
11125;SDS011;5617;54.046;10.676;2022-11-21T12:42:38;10.50;;;8.40;;
11125;SDS011;5617;54.046;10.676;2022-11-21T12:44:59;10.20;;;7.97;;
11125;SDS011;5617;54.046;10.676;2022-11-21T12:47:20;11.03;;;8.53;;
11125;SDS011;5617;54.046;10.676;2022-11-21T12:50:06;12.03;;;8.50;;
11125;SDS011;5617;54.046;10.676;2022-11-21T12:52:53;12.47;;;9.13;;
11125;SDS011;5617;54.046;10.676;2022-11-21T12:55:28;18.13;;;11.07;;
11125;SDS011;5617;54.046;10.676;2022-11-21T12:57:43;12.63;;;9.47;;
11125;SDS011;5617;54.046;10.676;2022-11-21T13:00:05;12.33;;;9.27;;
11125;SDS011;5617;54.046;10.676;2022-11-21T13:02:27;10.33;;;7.97;;
11125;SDS011;5617;54.046;10.676;2022-11-21T13:04:39;11.33;;;9.07;;
11125;SDS011;5617;54.046;10.676;2022-11-21T13:06:55;11.17;;;8.60;;
11125;SDS011;5617;54.046;10.676;2022-11-21T13:09:06;11.30;;;8.67;;
11125;SDS011;5617;54.046;10.676;2022-11-21T13:11:27;11.23;;;9.20;;